MSC Vienna — A8CI9 — position and weather

sailwx.info

Track history (hours):
 
Tides and Currents Weather Stations Pressure Air Temp Water Temp Dewpoint Dewpoint Depression Visibility Wind Speed Wind Dir Waves Ship Positions

MSC Vienna

Last reported at 2016-Jul-19 23:33 UTC. Time now 2016-Jul-25 00:16 UTC.
Position N 25°49' W 079°45'.

Length 260.1 m; beam 32.2 m; draft 12 m.

Type: Ship. MMSI: 636090654.

Date/timePositionNaut miles runAvg speedWind from/ knotsBaromVisibWave heightAir tempDewpointWater temp
2016-Jul-19 23:33N 25°49' W 079°45'1717.0
2016-Jul-19 22:33N 26°01' W 079°59'8 8.4
2016-Jul-19 21:33N 26°05' W 080°07'0 0.3
2016-Jul-19 20:33N 26°04' W 080°07'0 0.0
2016-Jul-19 19:33N 26°04' W 080°07'0 0.0
2016-Jul-19 18:33N 26°04' W 080°07'0 0.0
2016-Jul-19 17:21N 26°04' W 080°07'0 0.0
2016-Jul-19 16:27N 26°04' W 080°07'0 0.0
2016-Jul-19 15:33N 26°04' W 080°07'0 0.0
2016-Jul-19 14:27N 26°04' W 080°07'0 0.0
2016-Jul-19 13:33N 26°04' W 080°07'0 0.0
2016-Jul-19 12:33N 26°04' W 080°07'0 0.2
2016-Jul-19 11:33N 26°05' W 080°07'7 7.3
2016-Jul-19 10:34N 26°07' W 079°59'1514.8
2016-Jul-19 09:34N 26°10' W 079°43'77119.5
2016-Jul-17 18:00N 30°18' W 065°54'   180 / 121026.010.8 1.530.024.6
2016-Jul-14 03:30N 37°16' W 031°19'2120.9
2016-Jul-14 02:29N 37°18' W 030°52'2020.6
2016-Jul-14 01:31N 37°20' W 030°27'2020.6
2016-Jul-14 00:33N 37°22' W 030°02'2121.1
2016-Jul-13 23:34N 37°23' W 029°36'2120.8
2016-Jul-13 22:33N 37°23' W 029°10'2120.6
2016-Jul-13 21:33N 37°24' W 028°44'2120.7
2016-Jul-13 20:33N 37°25' W 028°18'2120.6
2016-Jul-13 19:34N 37°25' W 027°52'2120.9
2016-Jul-13 18:33N 37°26' W 027°26'2120.8
2016-Jul-13 17:34N 37°27' W 026°60'2020.5
2016-Jul-13 16:34N 37°28' W 026°34'2120.5
2016-Jul-13 15:34N 37°28' W 026°08'2120.9
2016-Jul-13 14:34N 37°29' W 025°42'2120.7
2016-Jul-13 13:34N 37°30' W 025°15'2120.8
2016-Jul-13 12:34N 37°29' W 024°49'2120.9
2016-Jul-13 11:34N 37°28' W 024°23'2120.9
2016-Jul-13 10:34N 37°26' W 023°57'2320.8
2016-Jul-13 09:26N 37°24' W 023°27'72620.7
2016-Jul-11 22:23N 36°02' W 008°27'14919.1
2016-Jul-11 14:33N 36°01' W 005°23'18616.9
2016-Jul-11 03:33N 36°48' W 001°39'1917.5
2016-Jul-11 02:29N 37°01' W 001°21'1718.1
2016-Jul-11 01:32N 37°12' W 001°05'1817.9
2016-Jul-11 00:33N 37°24' W 000°48'1717.5
2016-Jul-10 23:33N 37°35' W 000°32'1717.1
2016-Jul-10 22:33N 37°50' W 000°21'1817.5
2016-Jul-10 21:33N 38°05' W 000°09'1717.4
2016-Jul-10 20:33N 38°20' E 000°03'1717.2
2016-Jul-10 19:33N 38°34' E 000°15'5315.2
2016-Jul-10 16:03N 39°23' W 000°12'713.1
2016-Jul-10 15:34N 39°26' W 000°19'1 0.6
2016-Jul-10 14:33N 39°27' W 000°19'0 0.0
2016-Jul-10 13:21N 39°27' W 000°19'0 0.0
2016-Jul-10 12:24N 39°27' W 000°19'0 0.0
2016-Jul-10 11:33N 39°27' W 000°19'0 0.0
2016-Jul-10 10:33N 39°27' W 000°19'0 0.0
2016-Jul-10 09:33N 39°27' W 000°19'0 0.0
2016-Jul-10 08:33N 39°27' W 000°19'0 0.0
2016-Jul-10 07:15N 39°27' W 000°19'0 0.0
2016-Jul-10 06:33N 39°27' W 000°19'0 0.0
2016-Jul-10 05:33N 39°27' W 000°19'0 0.0
2016-Jul-10 04:33N 39°27' W 000°19'0 0.0
2016-Jul-10 03:33N 39°27' W 000°19'0 0.0
2016-Jul-10 02:33N 39°27' W 000°19'0 0.0
2016-Jul-10 01:27N 39°27' W 000°19'0 0.0
2016-Jul-10 00:27N 39°27' W 000°19'  
Track history (hours):
 
Tides and Currents Weather Stations Pressure Air Temp Water Temp Dewpoint Dewpoint Depression Visibility Wind Speed Wind Dir Waves Ship Positions

MSC Vienna

Last reported at 2016-Jul-19 23:33 UTC. Time now 2016-Jul-25 00:16 UTC.
Position N 25°49' W 079°45'.

Length 260.1 m; beam 32.2 m; draft 12 m.

Type: Ship. MMSI: 636090654.

Date/timePositionNaut miles runAvg speedWind from/ knotsBaromVisibWave heightAir tempDewpointWater temp
2016-Jul-19 23:33N 25°49' W 079°45'1717.0
2016-Jul-19 22:33N 26°01' W 079°59'8 8.4
2016-Jul-19 21:33N 26°05' W 080°07'0 0.3
2016-Jul-19 20:33N 26°04' W 080°07'0 0.0
2016-Jul-19 19:33N 26°04' W 080°07'0 0.0
2016-Jul-19 18:33N 26°04' W 080°07'0 0.0
2016-Jul-19 17:21N 26°04' W 080°07'0 0.0
2016-Jul-19 16:27N 26°04' W 080°07'0 0.0
2016-Jul-19 15:33N 26°04' W 080°07'0 0.0
2016-Jul-19 14:27N 26°04' W 080°07'0 0.0
2016-Jul-19 13:33N 26°04' W 080°07'0 0.0
2016-Jul-19 12:33N 26°04' W 080°07'0 0.2
2016-Jul-19 11:33N 26°05' W 080°07'7 7.3
2016-Jul-19 10:34N 26°07' W 079°59'1514.8
2016-Jul-19 09:34N 26°10' W 079°43'77119.5
2016-Jul-17 18:00N 30°18' W 065°54'   180 / 121026.010.8 1.530.024.6
2016-Jul-14 03:30N 37°16' W 031°19'2120.9
2016-Jul-14 02:29N 37°18' W 030°52'2020.6
2016-Jul-14 01:31N 37°20' W 030°27'2020.6
2016-Jul-14 00:33N 37°22' W 030°02'2121.1
2016-Jul-13 23:34N 37°23' W 029°36'2120.8
2016-Jul-13 22:33N 37°23' W 029°10'2120.6
2016-Jul-13 21:33N 37°24' W 028°44'2120.7
2016-Jul-13 20:33N 37°25' W 028°18'2120.6
2016-Jul-13 19:34N 37°25' W 027°52'2120.9
2016-Jul-13 18:33N 37°26' W 027°26'2120.8
2016-Jul-13 17:34N 37°27' W 026°60'2020.5
2016-Jul-13 16:34N 37°28' W 026°34'2120.5
2016-Jul-13 15:34N 37°28' W 026°08'2120.9
2016-Jul-13 14:34N 37°29' W 025°42'2120.7
2016-Jul-13 13:34N 37°30' W 025°15'2120.8
2016-Jul-13 12:34N 37°29' W 024°49'2120.9
2016-Jul-13 11:34N 37°28' W 024°23'2120.9
2016-Jul-13 10:34N 37°26' W 023°57'2320.8
2016-Jul-13 09:26N 37°24' W 023°27'72620.7
2016-Jul-11 22:23N 36°02' W 008°27'14919.1
2016-Jul-11 14:33N 36°01' W 005°23'18616.9
2016-Jul-11 03:33N 36°48' W 001°39'1917.5
2016-Jul-11 02:29N 37°01' W 001°21'1718.1
2016-Jul-11 01:32N 37°12' W 001°05'1817.9
2016-Jul-11 00:33N 37°24' W 000°48'1717.5
2016-Jul-10 23:33N 37°35' W 000°32'1717.1
2016-Jul-10 22:33N 37°50' W 000°21'1817.5
2016-Jul-10 21:33N 38°05' W 000°09'1717.4
2016-Jul-10 20:33N 38°20' E 000°03'1717.2
2016-Jul-10 19:33N 38°34' E 000°15'5315.2
2016-Jul-10 16:03N 39°23' W 000°12'713.1
2016-Jul-10 15:34N 39°26' W 000°19'1 0.6
2016-Jul-10 14:33N 39°27' W 000°19'0 0.0
2016-Jul-10 13:21N 39°27' W 000°19'0 0.0
2016-Jul-10 12:24N 39°27' W 000°19'0 0.0
2016-Jul-10 11:33N 39°27' W 000°19'0 0.0
2016-Jul-10 10:33N 39°27' W 000°19'0 0.0
2016-Jul-10 09:33N 39°27' W 000°19'0 0.0
2016-Jul-10 08:33N 39°27' W 000°19'0 0.0
2016-Jul-10 07:15N 39°27' W 000°19'0 0.0
2016-Jul-10 06:33N 39°27' W 000°19'0 0.0
2016-Jul-10 05:33N 39°27' W 000°19'0 0.0
2016-Jul-10 04:33N 39°27' W 000°19'0 0.0
2016-Jul-10 03:33N 39°27' W 000°19'0 0.0
2016-Jul-10 02:33N 39°27' W 000°19'0 0.0
2016-Jul-10 01:27N 39°27' W 000°19'0 0.0
2016-Jul-10 00:27N 39°27' W 000°19'  

Dump ship's entire track history